This is the latest recevied weather packets stored in our database for station/object LZ0VRC-10. If no packets are shown the sender has not sent any weather packets the latest 1 day(s).
| Time | Temp. | Humidity | Pressure | Rain* | Wind** | Luminosity | Snow |
|---|---|---|---|---|---|---|---|
| 1777802710 | 15° C | 35% | 1023.9 hPa | - | - | - | - |
| 1777802705 | 15° C | 35% | 1023.9 hPa | - | - | - | - |
| 1777801810 | 15° C | 38% | 1023.9 hPa | - | - | - | - |
| 1777801805 | 15° C | 38% | 1023.9 hPa | - | - | - | - |
| 1777800910 | 10.56° C | 47% | 1024.1 hPa | - | - | - | - |
| 1777800906 | 10.56° C | 47% | 1024.1 hPa | - | - | - | - |
| 1777800005 | 11.67° C | 48% | 1024.1 hPa | - | - | - | - |
| 1777799110 | 12.22° C | 57% | 1024.1 hPa | - | - | - | - |
| 1777799105 | 12.22° C | 57% | 1024.1 hPa | - | - | - | - |
| 1777798210 | 11.11° C | 62% | 1024.1 hPa | - | - | - | - |
| 1777798205 | 11.11° C | 62% | 1024.1 hPa | - | - | - | - |
| 1777797306 | 11.67° C | 61% | 1024.1 hPa | - | - | - | - |
| 1777796411 | 13.33° C | 57% | 1024.1 hPa | - | - | - | - |
| 1777796406 | 13.33° C | 57% | 1024.1 hPa | - | - | - | - |
| 1777795511 | 11.11° C | 68% | 1024.2 hPa | - | - | - | - |
| 1777795506 | 11.11° C | 68% | 1024.2 hPa | - | - | - | - |
| 1777794611 | 11.67° C | 69% | 1024.2 hPa | - | - | - | - |
| 1777794606 | 11.67° C | 69% | 1024.2 hPa | - | - | - | - |
| 1777793706 | 10° C | 74% | 1024.2 hPa | - | - | - | - |
| 1777792806 | 9.44° C | 74% | 1024.2 hPa | - | - | - | - |
| 1777791906 | 10.56° C | 73% | 1024.1 hPa | - | - | - | - |
| 1777791006 | 8.89° C | 77% | 1024.1 hPa | - | - | - | - |
| 1777790106 | 11.67° C | 69% | 1024 hPa | - | - | - | - |
| 1777789206 | 10.56° C | 73% | 1023.9 hPa | - | - | - | - |
| 1777788311 | 10° C | 83% | 1023.9 hPa | - | - | - | - |
* Rain since midnight (hover to see other rain measurements)
** Current wind speed in m/s (hover to see current wind gust speed)